^^
Paulen-Weather Station Historical Data
Daily Summary for August 06, 2022 Units:  English    Metric   Both
Daily Weekly Monthly Yearly Custom
  High: Low: Average:
Temperature: 55.4 °F 51.8 °F 53.4 °F
Dew Point: 48.2 °F 44.6 °F 46.6 °F
Humidity: 80% 73% 78%
Wind Speed: 8.7mph 3.1mph 6mph
Wind Gust: 7.5mph - -
Wind- - WSW
Pressure: 30.1 in 30 in -
Precipitation: 0 in    
Historical Graphs
 
 
Tabular Data for August 06, 2022
Time Temperature Dew Point Pressure Wind Wind Speed Wind Gust Humidity Rainfall Rate (Hourly) solar
00:04 55.4 °F 46.4 °F 30 in W 8.1 mph 5 mph 73% 0 in 0 W/m2
00:09 55.4 °F 46.4 °F 30 in W 6.8 mph 5 mph 73% 0 in 0 W/m2
00:14 53.6 °F 46.4 °F 30 in WSW 6.2 mph 4.3 mph 74% 0 in 0 W/m2
00:19 53.6 °F 46.4 °F 30 in W 8.1 mph 4.3 mph 74% 0 in 0 W/m2
00:24 53.6 °F 46.4 °F 30 in WSW 6.2 mph 5.6 mph 75% 0 in 0 W/m2
00:29 53.6 °F 46.4 °F 30 in E 5.6 mph 3.7 mph 75% 0 in 0 W/m2
00:34 53.6 °F 46.4 °F 30 in W 5.6 mph 5.6 mph 75% 0 in 0 W/m2
00:39 53.6 °F 46.4 °F 30 in W 6.8 mph 4.3 mph 76% 0 in 0 W/m2
00:44 53.6 °F 46.4 °F 30 in W 7.5 mph 5 mph 76% 0 in 0 W/m2
00:49 53.6 °F 46.4 °F 30 in WSW 8.1 mph 5.6 mph 77% 0 in 0 W/m2
00:54 53.6 °F 46.4 °F 30 in W 7.5 mph 5.6 mph 77% 0 in 0 W/m2
00:59 53.6 °F 46.4 °F 30 in WSW 6.2 mph 5 mph 77% 0 in 0 W/m2
01:04 53.6 °F 46.4 °F 30 in WSW 5 mph 4.3 mph 77% 0 in 0 W/m2
01:09 53.6 °F 46.4 °F 30 in W 5.6 mph 5 mph 77% 0 in 0 W/m2
01:14 53.6 °F 46.4 °F 30 in WSW 6.8 mph 5 mph 78% 0 in 0 W/m2
01:19 53.6 °F 46.4 °F 30 in WSW 6.2 mph 5 mph 78% 0 in 0 W/m2
01:24 53.6 °F 46.4 °F 30 in WSW 8.7 mph 6.8 mph 78% 0 in 0 W/m2
01:29 53.6 °F 46.4 °F 30 in W 6.2 mph 5 mph 78% 0 in 0 W/m2
01:34 53.6 °F 46.4 °F 30 in WSW 5 mph 3.1 mph 78% 0 in 0 W/m2
01:39 53.6 °F 46.4 °F 30 in W 6.2 mph 5 mph 78% 0 in 0 W/m2
01:44 53.6 °F 46.4 °F 30 in WSW 5 mph 5 mph 78% 0 in 0 W/m2
01:49 51.8 °F 46.4 °F 30 in WSW 5.6 mph 3.7 mph 78% 0 in 0 W/m2
01:54 51.8 °F 46.4 °F 30 in WSW 5 mph 4.3 mph 78% 0 in 0 W/m2
01:59 51.8 °F 46.4 °F 30 in WSW 5.6 mph 4.3 mph 78% 0 in 0 W/m2
02:04 51.8 °F 46.4 °F 30 in WSW 5 mph 5 mph 78% 0 in 0 W/m2
02:09 51.8 °F 46.4 °F 30 in WSW 5.6 mph 5.6 mph 78% 0 in 0 W/m2
02:14 51.8 °F 46.4 °F 30 in W 7.5 mph 5.6 mph 78% 0 in 0 W/m2
02:19 51.8 °F 46.4 °F 30 in WSW 5 mph 4.3 mph 78% 0 in 0 W/m2
02:24 51.8 °F 46.4 °F 30 in W 4.3 mph 4.3 mph 78% 0 in 0 W/m2
02:29 51.8 °F 44.6 °F 30 in W 4.3 mph 5 mph 78% 0 in 0 W/m2
02:34 51.8 °F 44.6 °F 30 in W 5 mph 4.3 mph 78% 0 in 0 W/m2
02:39 51.8 °F 44.6 °F 30 in W 5.6 mph 5 mph 78% 0 in 0 W/m2
02:44 51.8 °F 44.6 °F 30 in W 6.2 mph 5 mph 78% 0 in 0 W/m2
02:49 51.8 °F 46.4 °F 30 in W 7.5 mph 6.2 mph 78% 0 in 0 W/m2
02:54 51.8 °F 46.4 °F 30 in W 5 mph 5 mph 79% 0 in 0 W/m2
02:59 51.8 °F 46.4 °F 30 in W 5.6 mph 5 mph 79% 0 in 0 W/m2
03:04 51.8 °F 46.4 °F 30 in W 5 mph 3.7 mph 79% 0 in 0 W/m2
03:09 51.8 °F 46.4 °F 30 in WSW 4.3 mph 3.7 mph 79% 0 in 0 W/m2
03:14 51.8 °F 46.4 °F 30 in W 6.8 mph 5 mph 79% 0 in 0 W/m2
03:19 51.8 °F 46.4 °F 30 in W 5 mph 3.1 mph 80% 0 in 0 W/m2
03:24 51.8 °F 46.4 °F 30 in W 6.8 mph 6.8 mph 80% 0 in 0 W/m2
03:29 51.8 °F 46.4 °F 30 in W 6.8 mph 6.2 mph 80% 0 in 0 W/m2
03:34 51.8 °F 46.4 °F 30 in WSW 7.5 mph 3.7 mph 80% 0 in 0 W/m2
03:39 51.8 °F 46.4 °F 30 in W 6.2 mph 4.3 mph 80% 0 in 0 W/m2
03:44 51.8 °F 46.4 °F 30 in W 6.2 mph 5 mph 80% 0 in 0 W/m2
03:49 51.8 °F 46.4 °F 30 in W 6.2 mph 5 mph 80% 0 in 0 W/m2
03:54 51.8 °F 46.4 °F 30 in W 6.2 mph 6.2 mph 80% 0 in 0 W/m2
03:59 51.8 °F 46.4 °F 30 in W 6.8 mph 4.3 mph 80% 0 in 0 W/m2
04:04 53.6 °F 46.4 °F 30 in WSW 6.8 mph 5 mph 80% 0 in 0 W/m2
04:09 53.6 °F 46.4 °F 30 in S 5.6 mph 4.3 mph 79% 0 in 0 W/m2
04:14 53.6 °F 46.4 °F 30 in WSW 5 mph 3.1 mph 79% 0 in 0 W/m2
04:19 53.6 °F 46.4 °F 30 in WSW 3.7 mph 2.5 mph 79% 0 in 0 W/m2
04:24 53.6 °F 46.4 °F 30 in W 5 mph 3.7 mph 79% 0 in 0 W/m2
04:29 53.6 °F 46.4 °F 30 in WSW 5.6 mph 4.3 mph 79% 0 in 0 W/m2
04:34 53.6 °F 46.4 °F 30 in W 7.5 mph 6.2 mph 79% 0 in 0 W/m2
04:39 53.6 °F 46.4 °F 30 in WNW 5.6 mph 5 mph 79% 0 in 0 W/m2
04:44 53.6 °F 46.4 °F 30 in W 6.8 mph 5 mph 79% 0 in 0 W/m2
04:49 53.6 °F 46.4 °F 30 in W 7.5 mph 7.5 mph 79% 0 in 0 W/m2
04:54 53.6 °F 46.4 °F 30 in WSW 5.6 mph 4.3 mph 79% 0 in 0 W/m2
04:59 53.6 °F 46.4 °F 30 in W 6.2 mph 4.3 mph 79% 0 in 0 W/m2
05:04 53.6 °F 46.4 °F 30 in W 6.8 mph 5 mph 78% 0 in 0 W/m2
05:09 53.6 °F 46.4 °F 30 in WSW 5.6 mph 4.3 mph 78% 0 in 0 W/m2
05:14 53.6 °F 46.4 °F 30 in WSW 6.8 mph 5.6 mph 78% 0 in 0 W/m2
05:19 53.6 °F 46.4 °F 30 in WSW 5.6 mph 5.6 mph 78% 0 in 5 W/m2
05:24 53.6 °F 46.4 °F 30 in WSW 7.5 mph 4.3 mph 78% 0 in 5 W/m2
05:29 53.6 °F 46.4 °F 30 in W 3.7 mph 3.1 mph 78% 0 in 7 W/m2
05:34 53.6 °F 46.4 °F 30 in WSW 5.6 mph 4.3 mph 78% 0 in 9 W/m2
05:39 53.6 °F 46.4 °F 30 in SW 4.3 mph 4.3 mph 78% 0 in 14 W/m2
05:44 53.6 °F 46.4 °F 30 in W 5.6 mph 5 mph 78% 0 in 18 W/m2
05:49 53.6 °F 46.4 °F 30 in SW 6.2 mph 4.3 mph 78% 0 in 28 W/m2
05:54 53.6 °F 46.4 °F 30 in SW 4.3 mph 3.7 mph 78% 0 in 40 W/m2
05:59 53.6 °F 46.4 °F 30 in SW 4.3 mph 3.7 mph 78% 0 in 40 W/m2
06:04 53.6 °F 46.4 °F 30 in WSW 5 mph 4.3 mph 78% 0 in 46 W/m2
06:09 53.6 °F 46.4 °F 30 in W 6.2 mph 5 mph 78% 0 in 39 W/m2
06:14 53.6 °F 46.4 °F 30 in W 3.7 mph 3.7 mph 78% 0 in 37 W/m2
06:19 53.6 °F 46.4 °F 30 in W 6.8 mph 5 mph 78% 0 in 30 W/m2
06:24 53.6 °F 46.4 °F 30 in WSW 8.7 mph 6.2 mph 78% 0 in 23 W/m2
06:29 53.6 °F 46.4 °F 30 in SW 6.8 mph 4.3 mph 78% 0 in 19 W/m2
06:34 53.6 °F 48.2 °F 30 in SW 5.6 mph 5 mph 79% 0 in 26 W/m2
06:39 53.6 °F 48.2 °F 30 in WSW 5 mph 3.7 mph 79% 0 in 32 W/m2
06:44 53.6 °F 48.2 °F 30 in W 7.5 mph 6.2 mph 79% 0 in 35 W/m2
06:49 53.6 °F 48.2 °F 30 in WSW 6.8 mph 4.3 mph 80% 0 in 49 W/m2
06:54 53.6 °F 48.2 °F 30 in WSW 8.1 mph 6.2 mph 80% 0 in 69 W/m2
06:59 53.6 °F 48.2 °F 30 in WSW 7.5 mph 5.6 mph 80% 0 in 88 W/m2
07:04 53.6 °F 48.2 °F 30 in NW 4.3 mph 3.1 mph 80% 0 in 93 W/m2
07:09 55.4 °F 48.2 °F 30 in WSW 4.3 mph 3.7 mph 80% 0 in 93 W/m2
07:14 55.4 °F 48.2 °F 30.1 in W 6.8 mph 5 mph 80% 0 in 93 W/m2
07:19 55.4 °F 48.2 °F 30.1 in W 3.1 mph 3.1 mph 80% 0 in 84 W/m2
07:24 55.4 °F 48.2 °F 30.1 in S 3.7 mph 5 mph 80% 0 in 74 W/m2
07:29 55.4 °F 48.2 °F 30.1 in WSW 6.8 mph 5.6 mph 80% 0 in 69 W/m2
07:34 55.4 °F 48.2 °F 30.1 in WNW 3.7 mph 3.1 mph 80% 0 in 67 W/m2
07:39 55.4 °F 48.2 °F 30.1 in WSW 5 mph 4.3 mph 80% 0 in 76 W/m2
07:44 55.4 °F 48.2 °F 30.1 in W 5.6 mph 4.3 mph 80% 0 in 76 W/m2
07:49 55.4 °F 48.2 °F 30.1 in WSW 6.2 mph 5 mph 80% 0 in 81 W/m2
07:54 55.4 °F 48.2 °F 30.1 in WNW 7.5 mph 5.6 mph 80% 0 in 84 W/m2
07:59 55.4 °F 48.2 °F 30.1 in WNW 6.2 mph 5 mph 80% 0 in 98 W/m2
Compliments of Weather Underground - 2 mb